sensor_id;sensor_type;location;lat;lon;timestamp;P1;durP1;ratioP1;P2;durP2;ratioP2
12814;SDS011;6472;52.328;13.070;2023-05-07T00:01:03;10.13;;;7.97;;
12814;SDS011;6472;52.328;13.070;2023-05-07T00:03:32;8.73;;;6.67;;
12814;SDS011;6472;52.328;13.070;2023-05-07T00:06:00;12.27;;;8.43;;
12814;SDS011;6472;52.328;13.070;2023-05-07T00:08:28;11.23;;;7.30;;
12814;SDS011;6472;52.328;13.070;2023-05-07T00:10:56;8.70;;;7.13;;
12814;SDS011;6472;52.328;13.070;2023-05-07T00:13:24;9.73;;;7.10;;
12814;SDS011;6472;52.328;13.070;2023-05-07T00:15:52;9.17;;;6.47;;
12814;SDS011;6472;52.328;13.070;2023-05-07T00:18:22;9.03;;;6.63;;
12814;SDS011;6472;52.328;13.070;2023-05-07T00:20:50;12.23;;;6.77;;
12814;SDS011;6472;52.328;13.070;2023-05-07T00:23:17;9.73;;;6.37;;
12814;SDS011;6472;52.328;13.070;2023-05-07T00:25:45;10.77;;;6.83;;
12814;SDS011;6472;52.328;13.070;2023-05-07T00:28:13;9.20;;;6.87;;
12814;SDS011;6472;52.328;13.070;2023-05-07T00:30:41;7.67;;;5.70;;
12814;SDS011;6472;52.328;13.070;2023-05-07T00:33:09;10.53;;;6.23;;
12814;SDS011;6472;52.328;13.070;2023-05-07T00:35:39;12.30;;;7.03;;
12814;SDS011;6472;52.328;13.070;2023-05-07T00:38:07;8.83;;;6.97;;
12814;SDS011;6472;52.328;13.070;2023-05-07T00:40:35;9.73;;;6.93;;
12814;SDS011;6472;52.328;13.070;2023-05-07T00:43:03;14.50;;;6.33;;
12814;SDS011;6472;52.328;13.070;2023-05-07T00:45:31;9.20;;;6.90;;
12814;SDS011;6472;52.328;13.070;2023-05-07T00:48:00;11.50;;;6.67;;
12814;SDS011;6472;52.328;13.070;2023-05-07T00:50:29;8.27;;;6.70;;
12814;SDS011;6472;52.328;13.070;2023-05-07T00:52:59;8.80;;;6.53;;
12814;SDS011;6472;52.328;13.070;2023-05-07T00:55:27;10.83;;;7.00;;
12814;SDS011;6472;52.328;13.070;2023-05-07T00:57:56;12.03;;;7.23;;
12814;SDS011;6472;52.328;13.070;2023-05-07T01:00:24;11.97;;;6.80;;
12814;SDS011;6472;52.328;13.070;2023-05-07T01:02:53;12.67;;;7.20;;
12814;SDS011;6472;52.328;13.070;2023-05-07T01:05:22;16.20;;;11.13;;
12814;SDS011;6472;52.328;13.070;2023-05-07T01:07:52;23.27;;;13.83;;
12814;SDS011;6472;52.328;13.070;2023-05-07T01:10:23;9.30;;;4.97;;
12814;SDS011;6472;52.328;13.070;2023-05-07T01:12:52;11.50;;;7.07;;
12814;SDS011;6472;52.328;13.070;2023-05-07T01:15:21;22.50;;;12.83;;
12814;SDS011;6472;52.328;13.070;2023-05-07T01:17:49;19.80;;;12.47;;
12814;SDS011;6472;52.328;13.070;2023-05-07T01:20:18;9.83;;;6.47;;
12814;SDS011;6472;52.328;13.070;2023-05-07T01:22:48;9.07;;;6.20;;
12814;SDS011;6472;52.328;13.070;2023-05-07T01:25:17;10.93;;;6.47;;
12814;SDS011;6472;52.328;13.070;2023-05-07T01:27:45;7.43;;;5.70;;
12814;SDS011;6472;52.328;13.070;2023-05-07T01:30:13;7.50;;;5.20;;
12814;SDS011;6472;52.328;13.070;2023-05-07T01:32:43;7.27;;;6.40;;
12814;SDS011;6472;52.328;13.070;2023-05-07T01:35:15;6.60;;;5.50;;
12814;SDS011;6472;52.328;13.070;2023-05-07T01:37:47;9.20;;;5.10;;
12814;SDS011;6472;52.328;13.070;2023-05-07T01:40:16;5.93;;;5.03;;
12814;SDS011;6472;52.328;13.070;2023-05-07T01:42:44;9.90;;;6.20;;
12814;SDS011;6472;52.328;13.070;2023-05-07T01:45:14;8.57;;;6.30;;
12814;SDS011;6472;52.328;13.070;2023-05-07T01:47:42;8.10;;;5.70;;
12814;SDS011;6472;52.328;13.070;2023-05-07T01:50:11;6.37;;;5.00;;
12814;SDS011;6472;52.328;13.070;2023-05-07T01:52:40;8.57;;;5.70;;
12814;SDS011;6472;52.328;13.070;2023-05-07T01:55:09;8.80;;;5.73;;
12814;SDS011;6472;52.328;13.070;2023-05-07T01:57:37;10.20;;;5.73;;
12814;SDS011;6472;52.328;13.070;2023-05-07T02:00:06;5.57;;;4.13;;
12814;SDS011;6472;52.328;13.070;2023-05-07T02:02:36;8.27;;;5.37;;
12814;SDS011;6472;52.328;13.070;2023-05-07T02:05:04;8.47;;;5.10;;
12814;SDS011;6472;52.328;13.070;2023-05-07T02:07:33;6.63;;;4.70;;
12814;SDS011;6472;52.328;13.070;2023-05-07T02:10:01;7.97;;;5.67;;
12814;SDS011;6472;52.328;13.070;2023-05-07T02:12:31;6.73;;;4.70;;
12814;SDS011;6472;52.328;13.070;2023-05-07T02:14:59;10.97;;;5.40;;
12814;SDS011;6472;52.328;13.070;2023-05-07T02:17:27;5.00;;;4.40;;
12814;SDS011;6472;52.328;13.070;2023-05-07T02:19:58;6.87;;;5.27;;
12814;SDS011;6472;52.328;13.070;2023-05-07T02:22:26;6.97;;;4.23;;
12814;SDS011;6472;52.328;13.070;2023-05-07T02:24:53;6.93;;;4.47;;
12814;SDS011;6472;52.328;13.070;2023-05-07T02:27:21;7.47;;;5.43;;
12814;SDS011;6472;52.328;13.070;2023-05-07T02:29:51;5.60;;;4.67;;
12814;SDS011;6472;52.328;13.070;2023-05-07T02:32:19;6.43;;;4.73;;
12814;SDS011;6472;52.328;13.070;2023-05-07T02:34:49;6.27;;;4.87;;
12814;SDS011;6472;52.328;13.070;2023-05-07T02:37:18;8.23;;;4.77;;
12814;SDS011;6472;52.328;13.070;2023-05-07T02:39:46;7.10;;;5.00;;
12814;SDS011;6472;52.328;13.070;2023-05-07T02:42:14;8.27;;;5.13;;
12814;SDS011;6472;52.328;13.070;2023-05-07T02:44:42;7.57;;;5.63;;
12814;SDS011;6472;52.328;13.070;2023-05-07T02:47:11;5.37;;;4.60;;
12814;SDS011;6472;52.328;13.070;2023-05-07T02:49:40;8.37;;;5.77;;
12814;SDS011;6472;52.328;13.070;2023-05-07T02:52:08;7.50;;;5.63;;
12814;SDS011;6472;52.328;13.070;2023-05-07T02:54:36;7.77;;;4.70;;
12814;SDS011;6472;52.328;13.070;2023-05-07T02:57:04;7.50;;;5.13;;
12814;SDS011;6472;52.328;13.070;2023-05-07T02:59:32;8.63;;;5.27;;
12814;SDS011;6472;52.328;13.070;2023-05-07T03:02:00;7.70;;;4.90;;
12814;SDS011;6472;52.328;13.070;2023-05-07T03:04:30;4.83;;;4.10;;
12814;SDS011;6472;52.328;13.070;2023-05-07T03:06:57;7.80;;;5.00;;
12814;SDS011;6472;52.328;13.070;2023-05-07T03:09:25;7.33;;;4.50;;
12814;SDS011;6472;52.328;13.070;2023-05-07T03:11:53;7.03;;;5.67;;
12814;SDS011;6472;52.328;13.070;2023-05-07T03:14:21;10.53;;;4.83;;
12814;SDS011;6472;52.328;13.070;2023-05-07T03:16:49;9.27;;;5.27;;
12814;SDS011;6472;52.328;13.070;2023-05-07T03:19:18;8.73;;;5.07;;
12814;SDS011;6472;52.328;13.070;2023-05-07T03:21:47;11.63;;;5.47;;
12814;SDS011;6472;52.328;13.070;2023-05-07T03:24:15;9.00;;;5.00;;
12814;SDS011;6472;52.328;13.070;2023-05-07T03:26:43;10.00;;;5.90;;
12814;SDS011;6472;52.328;13.070;2023-05-07T03:29:11;8.00;;;5.07;;
12814;SDS011;6472;52.328;13.070;2023-05-07T03:31:39;6.43;;;5.03;;
12814;SDS011;6472;52.328;13.070;2023-05-07T03:34:07;6.77;;;5.17;;
12814;SDS011;6472;52.328;13.070;2023-05-07T03:36:35;8.33;;;5.83;;
12814;SDS011;6472;52.328;13.070;2023-05-07T03:39:04;8.97;;;5.80;;
12814;SDS011;6472;52.328;13.070;2023-05-07T03:41:32;8.20;;;5.17;;
12814;SDS011;6472;52.328;13.070;2023-05-07T03:44:00;6.90;;;5.13;;
12814;SDS011;6472;52.328;13.070;2023-05-07T03:46:28;7.27;;;5.43;;
12814;SDS011;6472;52.328;13.070;2023-05-07T03:48:56;8.43;;;6.27;;
12814;SDS011;6472;52.328;13.070;2023-05-07T03:51:24;8.60;;;5.73;;
12814;SDS011;6472;52.328;13.070;2023-05-07T03:53:52;7.50;;;4.77;;
12814;SDS011;6472;52.328;13.070;2023-05-07T03:56:24;7.70;;;4.73;;
12814;SDS011;6472;52.328;13.070;2023-05-07T03:58:54;7.33;;;4.90;;
12814;SDS011;6472;52.328;13.070;2023-05-07T04:01:22;7.90;;;5.33;;
12814;SDS011;6472;52.328;13.070;2023-05-07T04:03:50;7.30;;;5.37;;
12814;SDS011;6472;52.328;13.070;2023-05-07T04:06:18;7.20;;;4.87;;
12814;SDS011;6472;52.328;13.070;2023-05-07T04:08:46;8.70;;;5.70;;
12814;SDS011;6472;52.328;13.070;2023-05-07T04:11:14;6.77;;;4.90;;
12814;SDS011;6472;52.328;13.070;2023-05-07T04:13:43;8.37;;;5.47;;
12814;SDS011;6472;52.328;13.070;2023-05-07T04:16:11;7.90;;;4.70;;
12814;SDS011;6472;52.328;13.070;2023-05-07T04:18:39;9.33;;;4.63;;
12814;SDS011;6472;52.328;13.070;2023-05-07T04:21:13;8.80;;;5.03;;
12814;SDS011;6472;52.328;13.070;2023-05-07T04:23:42;6.37;;;4.67;;
12814;SDS011;6472;52.328;13.070;2023-05-07T04:26:10;6.10;;;4.93;;
12814;SDS011;6472;52.328;13.070;2023-05-07T04:28:38;7.70;;;5.20;;
12814;SDS011;6472;52.328;13.070;2023-05-07T04:31:08;7.03;;;4.47;;
12814;SDS011;6472;52.328;13.070;2023-05-07T04:33:36;8.17;;;5.17;;
12814;SDS011;6472;52.328;13.070;2023-05-07T04:36:04;6.10;;;4.53;;
12814;SDS011;6472;52.328;13.070;2023-05-07T04:38:32;6.33;;;4.50;;
12814;SDS011;6472;52.328;13.070;2023-05-07T04:41:02;7.90;;;4.53;;
12814;SDS011;6472;52.328;13.070;2023-05-07T04:43:31;5.60;;;4.27;;
12814;SDS011;6472;52.328;13.070;2023-05-07T04:45:59;5.97;;;4.80;;
12814;SDS011;6472;52.328;13.070;2023-05-07T04:48:29;9.17;;;4.73;;
12814;SDS011;6472;52.328;13.070;2023-05-07T04:50:57;9.60;;;5.37;;
12814;SDS011;6472;52.328;13.070;2023-05-07T04:53:25;6.10;;;4.80;;
12814;SDS011;6472;52.328;13.070;2023-05-07T04:55:56;7.53;;;4.70;;
12814;SDS011;6472;52.328;13.070;2023-05-07T04:58:24;9.40;;;5.57;;
12814;SDS011;6472;52.328;13.070;2023-05-07T05:00:52;7.93;;;5.00;;
12814;SDS011;6472;52.328;13.070;2023-05-07T05:03:20;7.20;;;5.10;;
12814;SDS011;6472;52.328;13.070;2023-05-07T05:05:50;8.57;;;5.43;;
12814;SDS011;6472;52.328;13.070;2023-05-07T05:08:18;7.37;;;5.50;;
12814;SDS011;6472;52.328;13.070;2023-05-07T05:10:46;8.07;;;4.87;;
12814;SDS011;6472;52.328;13.070;2023-05-07T05:13:16;9.40;;;5.47;;
12814;SDS011;6472;52.328;13.070;2023-05-07T05:15:44;10.37;;;6.00;;
12814;SDS011;6472;52.328;13.070;2023-05-07T05:18:12;10.37;;;5.40;;
12814;SDS011;6472;52.328;13.070;2023-05-07T05:20:40;7.83;;;5.23;;
12814;SDS011;6472;52.328;13.070;2023-05-07T05:23:10;8.03;;;5.20;;
12814;SDS011;6472;52.328;13.070;2023-05-07T05:25:38;8.77;;;4.90;;
12814;SDS011;6472;52.328;13.070;2023-05-07T05:28:06;9.07;;;4.83;;
12814;SDS011;6472;52.328;13.070;2023-05-07T05:30:34;8.00;;;4.97;;
12814;SDS011;6472;52.328;13.070;2023-05-07T05:33:02;9.97;;;5.77;;
12814;SDS011;6472;52.328;13.070;2023-05-07T05:35:30;7.47;;;5.50;;
12814;SDS011;6472;52.328;13.070;2023-05-07T05:37:58;7.43;;;4.83;;
12814;SDS011;6472;52.328;13.070;2023-05-07T05:40:28;6.97;;;4.57;;
12814;SDS011;6472;52.328;13.070;2023-05-07T05:42:56;10.83;;;5.10;;
12814;SDS011;6472;52.328;13.070;2023-05-07T05:45:24;8.90;;;5.27;;
12814;SDS011;6472;52.328;13.070;2023-05-07T05:47:52;10.20;;;5.63;;
12814;SDS011;6472;52.328;13.070;2023-05-07T05:50:20;9.43;;;5.03;;
12814;SDS011;6472;52.328;13.070;2023-05-07T05:52:48;7.50;;;5.10;;
12814;SDS011;6472;52.328;13.070;2023-05-07T05:55:17;7.03;;;4.50;;
12814;SDS011;6472;52.328;13.070;2023-05-07T05:57:46;6.93;;;4.67;;
12814;SDS011;6472;52.328;13.070;2023-05-07T06:00:14;7.27;;;5.00;;
12814;SDS011;6472;52.328;13.070;2023-05-07T06:02:42;6.23;;;4.50;;
12814;SDS011;6472;52.328;13.070;2023-05-07T06:05:11;8.00;;;4.43;;
12814;SDS011;6472;52.328;13.070;2023-05-07T06:07:39;5.70;;;4.60;;
12814;SDS011;6472;52.328;13.070;2023-05-07T06:10:07;10.07;;;5.50;;
12814;SDS011;6472;52.328;13.070;2023-05-07T06:12:36;7.13;;;5.13;;
12814;SDS011;6472;52.328;13.070;2023-05-07T06:15:06;8.80;;;4.60;;
12814;SDS011;6472;52.328;13.070;2023-05-07T06:17:34;6.13;;;4.73;;
12814;SDS011;6472;52.328;13.070;2023-05-07T06:20:02;5.27;;;4.60;;
12814;SDS011;6472;52.328;13.070;2023-05-07T06:22:31;6.17;;;4.27;;
12814;SDS011;6472;52.328;13.070;2023-05-07T06:24:59;6.60;;;4.60;;
12814;SDS011;6472;52.328;13.070;2023-05-07T06:27:27;7.23;;;4.47;;
12814;SDS011;6472;52.328;13.070;2023-05-07T06:29:55;6.83;;;4.87;;
12814;SDS011;6472;52.328;13.070;2023-05-07T06:32:24;7.83;;;4.77;;
12814;SDS011;6472;52.328;13.070;2023-05-07T06:34:53;6.73;;;4.00;;
12814;SDS011;6472;52.328;13.070;2023-05-07T06:37:21;7.13;;;4.23;;
12814;SDS011;6472;52.328;13.070;2023-05-07T06:39:49;4.60;;;3.73;;
12814;SDS011;6472;52.328;13.070;2023-05-07T06:42:18;6.37;;;4.60;;
12814;SDS011;6472;52.328;13.070;2023-05-07T06:44:46;10.10;;;4.90;;
12814;SDS011;6472;52.328;13.070;2023-05-07T06:47:14;5.47;;;3.90;;
12814;SDS011;6472;52.328;13.070;2023-05-07T06:49:43;8.00;;;4.43;;
12814;SDS011;6472;52.328;13.070;2023-05-07T06:52:11;7.93;;;4.37;;
12814;SDS011;6472;52.328;13.070;2023-05-07T06:54:39;8.90;;;4.73;;
12814;SDS011;6472;52.328;13.070;2023-05-07T06:57:07;5.37;;;4.07;;
12814;SDS011;6472;52.328;13.070;2023-05-07T06:59:35;4.20;;;3.50;;
12814;SDS011;6472;52.328;13.070;2023-05-07T07:02:03;6.63;;;4.17;;
12814;SDS011;6472;52.328;13.070;2023-05-07T07:04:31;5.33;;;3.97;;
12814;SDS011;6472;52.328;13.070;2023-05-07T07:07:00;5.83;;;4.50;;
12814;SDS011;6472;52.328;13.070;2023-05-07T07:09:28;4.47;;;3.93;;
12814;SDS011;6472;52.328;13.070;2023-05-07T07:11:56;7.03;;;3.07;;
12814;SDS011;6472;52.328;13.070;2023-05-07T07:14:24;4.30;;;3.40;;
12814;SDS011;6472;52.328;13.070;2023-05-07T07:16:52;5.10;;;3.53;;
12814;SDS011;6472;52.328;13.070;2023-05-07T07:19:20;4.43;;;3.63;;
12814;SDS011;6472;52.328;13.070;2023-05-07T07:21:48;9.80;;;4.13;;
12814;SDS011;6472;52.328;13.070;2023-05-07T07:24:18;5.43;;;4.27;;
12814;SDS011;6472;52.328;13.070;2023-05-07T07:26:47;6.90;;;4.10;;
12814;SDS011;6472;52.328;13.070;2023-05-07T07:29:15;7.60;;;3.93;;
12814;SDS011;6472;52.328;13.070;2023-05-07T07:31:45;7.40;;;3.63;;
12814;SDS011;6472;52.328;13.070;2023-05-07T07:34:13;4.20;;;3.77;;
12814;SDS011;6472;52.328;13.070;2023-05-07T07:36:41;8.23;;;3.53;;
12814;SDS011;6472;52.328;13.070;2023-05-07T07:39:12;4.70;;;3.60;;
12814;SDS011;6472;52.328;13.070;2023-05-07T07:41:41;4.40;;;3.30;;
12814;SDS011;6472;52.328;13.070;2023-05-07T07:44:09;5.43;;;4.30;;
12814;SDS011;6472;52.328;13.070;2023-05-07T07:46:41;4.53;;;3.40;;
12814;SDS011;6472;52.328;13.070;2023-05-07T07:49:09;4.00;;;3.17;;
12814;SDS011;6472;52.328;13.070;2023-05-07T07:51:37;3.10;;;2.80;;
12814;SDS011;6472;52.328;13.070;2023-05-07T07:54:05;3.27;;;2.73;;
12814;SDS011;6472;52.328;13.070;2023-05-07T07:56:34;3.40;;;2.83;;
12814;SDS011;6472;52.328;13.070;2023-05-07T07:59:04;4.03;;;2.83;;
12814;SDS011;6472;52.328;13.070;2023-05-07T08:01:32;2.83;;;2.43;;
12814;SDS011;6472;52.328;13.070;2023-05-07T08:04:00;3.57;;;2.57;;
12814;SDS011;6472;52.328;13.070;2023-05-07T08:06:29;4.87;;;2.50;;
12814;SDS011;6472;52.328;13.070;2023-05-07T08:08:57;2.50;;;2.30;;
12814;SDS011;6472;52.328;13.070;2023-05-07T08:11:25;2.67;;;2.20;;
12814;SDS011;6472;52.328;13.070;2023-05-07T08:13:54;4.03;;;2.53;;
12814;SDS011;6472;52.328;13.070;2023-05-07T08:16:23;2.10;;;1.87;;
12814;SDS011;6472;52.328;13.070;2023-05-07T08:18:52;2.93;;;2.30;;
12814;SDS011;6472;52.328;13.070;2023-05-07T08:21:20;4.90;;;2.97;;
12814;SDS011;6472;52.328;13.070;2023-05-07T08:23:47;2.67;;;2.27;;
12814;SDS011;6472;52.328;13.070;2023-05-07T08:26:15;3.40;;;3.10;;
12814;SDS011;6472;52.328;13.070;2023-05-07T08:28:44;2.67;;;2.30;;
12814;SDS011;6472;52.328;13.070;2023-05-07T08:31:12;2.80;;;2.50;;
12814;SDS011;6472;52.328;13.070;2023-05-07T08:33:41;3.13;;;2.57;;
12814;SDS011;6472;52.328;13.070;2023-05-07T08:36:09;7.13;;;2.90;;
12814;SDS011;6472;52.328;13.070;2023-05-07T08:38:37;2.97;;;2.53;;
12814;SDS011;6472;52.328;13.070;2023-05-07T08:41:06;3.73;;;2.30;;
12814;SDS011;6472;52.328;13.070;2023-05-07T08:43:37;7.67;;;3.00;;
12814;SDS011;6472;52.328;13.070;2023-05-07T08:46:09;3.07;;;2.57;;
12814;SDS011;6472;52.328;13.070;2023-05-07T08:48:38;3.67;;;2.70;;
12814;SDS011;6472;52.328;13.070;2023-05-07T08:51:08;2.90;;;2.43;;
12814;SDS011;6472;52.328;13.070;2023-05-07T08:53:39;7.07;;;2.63;;
12814;SDS011;6472;52.328;13.070;2023-05-07T08:56:08;3.50;;;1.80;;
12814;SDS011;6472;52.328;13.070;2023-05-07T08:58:37;4.40;;;2.53;;
12814;SDS011;6472;52.328;13.070;2023-05-07T09:01:07;3.07;;;2.03;;
12814;SDS011;6472;52.328;13.070;2023-05-07T09:03:36;4.80;;;1.63;;
12814;SDS011;6472;52.328;13.070;2023-05-07T09:06:05;1.90;;;1.70;;
12814;SDS011;6472;52.328;13.070;2023-05-07T09:08:35;2.50;;;2.10;;
12814;SDS011;6472;52.328;13.070;2023-05-07T09:11:03;2.77;;;2.13;;
12814;SDS011;6472;52.328;13.070;2023-05-07T09:13:31;2.93;;;2.27;;
12814;SDS011;6472;52.328;13.070;2023-05-07T09:16:08;5.43;;;2.20;;
12814;SDS011;6472;52.328;13.070;2023-05-07T09:18:40;2.27;;;1.93;;
12814;SDS011;6472;52.328;13.070;2023-05-07T09:21:14;1.77;;;1.67;;
12814;SDS011;6472;52.328;13.070;2023-05-07T09:23:42;1.90;;;1.80;;
12814;SDS011;6472;52.328;13.070;2023-05-07T09:26:10;4.07;;;2.33;;
12814;SDS011;6472;52.328;13.070;2023-05-07T09:28:39;3.23;;;2.23;;
12814;SDS011;6472;52.328;13.070;2023-05-07T09:31:08;4.23;;;1.80;;
12814;SDS011;6472;52.328;13.070;2023-05-07T09:33:39;3.67;;;1.60;;
12814;SDS011;6472;52.328;13.070;2023-05-07T09:36:08;1.58;;;1.48;;
12814;SDS011;6472;52.328;13.070;2023-05-07T09:38:38;3.13;;;1.67;;
12814;SDS011;6472;52.328;13.070;2023-05-07T09:41:07;3.07;;;1.87;;
12814;SDS011;6472;52.328;13.070;2023-05-07T09:43:36;2.10;;;1.83;;
12814;SDS011;6472;52.328;13.070;2023-05-07T09:46:06;1.70;;;1.60;;
12814;SDS011;6472;52.328;13.070;2023-05-07T09:48:36;2.45;;;1.65;;
12814;SDS011;6472;52.328;13.070;2023-05-07T09:51:08;2.92;;;2.03;;
12814;SDS011;6472;52.328;13.070;2023-05-07T09:53:50;1.27;;;1.27;;
12814;SDS011;6472;52.328;13.070;2023-05-07T09:56:19;1.38;;;1.30;;
12814;SDS011;6472;52.328;13.070;2023-05-07T09:58:48;1.55;;;1.45;;
12814;SDS011;6472;52.328;13.070;2023-05-07T10:01:18;2.08;;;1.80;;
12814;SDS011;6472;52.328;13.070;2023-05-07T10:03:48;1.42;;;1.33;;
12814;SDS011;6472;52.328;13.070;2023-05-07T10:06:18;1.67;;;1.58;;
12814;SDS011;6472;52.328;13.070;2023-05-07T10:08:47;3.30;;;1.50;;
12814;SDS011;6472;52.328;13.070;2023-05-07T10:11:18;3.53;;;1.77;;
12814;SDS011;6472;52.328;13.070;2023-05-07T10:13:46;1.07;;;1.00;;
12814;SDS011;6472;52.328;13.070;2023-05-07T10:16:15;2.67;;;1.00;;
12814;SDS011;6472;52.328;13.070;2023-05-07T10:18:44;1.73;;;1.50;;
12814;SDS011;6472;52.328;13.070;2023-05-07T10:21:15;2.10;;;1.27;;
12814;SDS011;6472;52.328;13.070;2023-05-07T10:23:45;1.57;;;1.47;;
12814;SDS011;6472;52.328;13.070;2023-05-07T10:26:16;1.00;;;0.83;;
12814;SDS011;6472;52.328;13.070;2023-05-07T10:28:47;2.63;;;1.30;;
12814;SDS011;6472;52.328;13.070;2023-05-07T10:31:27;1.23;;;1.23;;
12814;SDS011;6472;52.328;13.070;2023-05-07T10:34:16;2.60;;;1.57;;
12814;SDS011;6472;52.328;13.070;2023-05-07T10:36:48;1.47;;;1.30;;
12814;SDS011;6472;52.328;13.070;2023-05-07T10:39:18;1.30;;;1.27;;
12814;SDS011;6472;52.328;13.070;2023-05-07T10:41:49;1.20;;;1.20;;
12814;SDS011;6472;52.328;13.070;2023-05-07T10:44:26;1.67;;;1.10;;
12814;SDS011;6472;52.328;13.070;2023-05-07T10:47:05;3.27;;;1.30;;
12814;SDS011;6472;52.328;13.070;2023-05-07T10:49:36;1.60;;;1.50;;
12814;SDS011;6472;52.328;13.070;2023-05-07T10:52:11;1.80;;;1.30;;
12814;SDS011;6472;52.328;13.070;2023-05-07T10:54:42;2.13;;;1.53;;
12814;SDS011;6472;52.328;13.070;2023-05-07T11:00:40;1.60;;;1.50;;
12814;SDS011;6472;52.328;13.070;2023-05-07T11:03:09;2.87;;;2.23;;
12814;SDS011;6472;52.328;13.070;2023-05-07T11:05:38;2.20;;;2.10;;
12814;SDS011;6472;52.328;13.070;2023-05-07T11:08:06;2.60;;;2.40;;
12814;SDS011;6472;52.328;13.070;2023-05-07T11:10:47;2.00;;;1.90;;
12814;SDS011;6472;52.328;13.070;2023-05-07T11:13:18;3.03;;;2.27;;
12814;SDS011;6472;52.328;13.070;2023-05-07T11:16:15;2.30;;;2.07;;
12814;SDS011;6472;52.328;13.070;2023-05-07T11:18:48;2.30;;;2.13;;
12814;SDS011;6472;52.328;13.070;2023-05-07T11:21:33;2.07;;;1.97;;
12814;SDS011;6472;52.328;13.070;2023-05-07T11:24:02;2.70;;;1.80;;
12814;SDS011;6472;52.328;13.070;2023-05-07T11:26:41;1.73;;;1.63;;
12814;SDS011;6472;52.328;13.070;2023-05-07T11:29:15;2.00;;;1.90;;
12814;SDS011;6472;52.328;13.070;2023-05-07T11:31:50;2.03;;;1.85;;
12814;SDS011;6472;52.328;13.070;2023-05-07T11:34:22;2.37;;;2.07;;
12814;SDS011;6472;52.328;13.070;2023-05-07T11:36:51;2.17;;;1.90;;
12814;SDS011;6472;52.328;13.070;2023-05-07T11:39:23;2.10;;;1.90;;
12814;SDS011;6472;52.328;13.070;2023-05-07T11:41:55;1.70;;;1.60;;
12814;SDS011;6472;52.328;13.070;2023-05-07T11:44:24;2.33;;;2.13;;
12814;SDS011;6472;52.328;13.070;2023-05-07T11:46:52;1.87;;;1.77;;
12814;SDS011;6472;52.328;13.070;2023-05-07T11:49:20;1.77;;;1.67;;
12814;SDS011;6472;52.328;13.070;2023-05-07T11:51:52;1.60;;;1.50;;
12814;SDS011;6472;52.328;13.070;2023-05-07T11:54:20;2.77;;;1.97;;
12814;SDS011;6472;52.328;13.070;2023-05-07T11:56:48;1.90;;;1.80;;
12814;SDS011;6472;52.328;13.070;2023-05-07T11:59:17;1.65;;;1.25;;
12814;SDS011;6472;52.328;13.070;2023-05-07T12:01:47;2.13;;;1.45;;
12814;SDS011;6472;52.328;13.070;2023-05-07T12:04:19;1.23;;;1.13;;
12814;SDS011;6472;52.328;13.070;2023-05-07T12:06:48;1.23;;;1.17;;
12814;SDS011;6472;52.328;13.070;2023-05-07T12:09:17;1.40;;;1.30;;
12814;SDS011;6472;52.328;13.070;2023-05-07T12:11:45;2.00;;;1.50;;
12814;SDS011;6472;52.328;13.070;2023-05-07T12:14:14;3.20;;;1.47;;
12814;SDS011;6472;52.328;13.070;2023-05-07T12:16:43;1.10;;;1.10;;
12814;SDS011;6472;52.328;13.070;2023-05-07T12:19:13;1.38;;;1.33;;
12814;SDS011;6472;52.328;13.070;2023-05-07T12:21:42;1.50;;;1.40;;
12814;SDS011;6472;52.328;13.070;2023-05-07T12:24:10;1.85;;;1.50;;
12814;SDS011;6472;52.328;13.070;2023-05-07T12:26:38;1.40;;;1.30;;
12814;SDS011;6472;52.328;13.070;2023-05-07T12:29:07;1.60;;;1.50;;
12814;SDS011;6472;52.328;13.070;2023-05-07T12:31:35;1.33;;;1.23;;
12814;SDS011;6472;52.328;13.070;2023-05-07T12:34:03;1.20;;;1.10;;
12814;SDS011;6472;52.328;13.070;2023-05-07T12:36:37;1.30;;;1.20;;
12814;SDS011;6472;52.328;13.070;2023-05-07T12:39:06;1.10;;;1.10;;
12814;SDS011;6472;52.328;13.070;2023-05-07T12:41:51;1.63;;;1.53;;
12814;SDS011;6472;52.328;13.070;2023-05-07T12:44:21;1.70;;;1.60;;
12814;SDS011;6472;52.328;13.070;2023-05-07T12:46:50;1.70;;;1.60;;
12814;SDS011;6472;52.328;13.070;2023-05-07T12:49:19;1.55;;;1.45;;
12814;SDS011;6472;52.328;13.070;2023-05-07T12:51:51;1.50;;;1.40;;
12814;SDS011;6472;52.328;13.070;2023-05-07T12:54:29;2.00;;;1.63;;
12814;SDS011;6472;52.328;13.070;2023-05-07T12:57:01;1.23;;;1.23;;
12814;SDS011;6472;52.328;13.070;2023-05-07T12:59:33;6.05;;;1.20;;
12814;SDS011;6472;52.328;13.070;2023-05-07T13:02:02;1.05;;;1.05;;
12814;SDS011;6472;52.328;13.070;2023-05-07T13:04:30;1.92;;;0.90;;
12814;SDS011;6472;52.328;13.070;2023-05-07T13:07:00;0.95;;;0.90;;
12814;SDS011;6472;52.328;13.070;2023-05-07T13:09:28;0.90;;;0.90;;
12814;SDS011;6472;52.328;13.070;2023-05-07T13:11:58;1.25;;;1.20;;
12814;SDS011;6472;52.328;13.070;2023-05-07T13:14:27;1.02;;;1.02;;
12814;SDS011;6472;52.328;13.070;2023-05-07T13:16:55;1.65;;;1.23;;
12814;SDS011;6472;52.328;13.070;2023-05-07T13:19:23;0.85;;;0.85;;
12814;SDS011;6472;52.328;13.070;2023-05-07T13:21:51;1.70;;;1.27;;
12814;SDS011;6472;52.328;13.070;2023-05-07T13:24:21;1.10;;;1.00;;
12814;SDS011;6472;52.328;13.070;2023-05-07T13:26:49;1.50;;;1.40;;
12814;SDS011;6472;52.328;13.070;2023-05-07T13:29:17;2.05;;;1.00;;
12814;SDS011;6472;52.328;13.070;2023-05-07T13:31:45;1.83;;;1.20;;
12814;SDS011;6472;52.328;13.070;2023-05-07T13:34:15;1.92;;;1.20;;
12814;SDS011;6472;52.328;13.070;2023-05-07T13:36:43;1.10;;;1.02;;
12814;SDS011;6472;52.328;13.070;2023-05-07T13:39:11;0.73;;;0.73;;
12814;SDS011;6472;52.328;13.070;2023-05-07T13:41:41;1.58;;;0.88;;
12814;SDS011;6472;52.328;13.070;2023-05-07T13:44:09;0.95;;;0.90;;
12814;SDS011;6472;52.328;13.070;2023-05-07T13:46:37;1.00;;;0.90;;
12814;SDS011;6472;52.328;13.070;2023-05-07T13:49:05;1.23;;;1.00;;
12814;SDS011;6472;52.328;13.070;2023-05-07T13:51:33;1.98;;;1.02;;
12814;SDS011;6472;52.328;13.070;2023-05-07T13:54:02;0.88;;;0.88;;
12814;SDS011;6472;52.328;13.070;2023-05-07T13:56:30;1.20;;;1.10;;
12814;SDS011;6472;52.328;13.070;2023-05-07T13:59:00;0.90;;;0.90;;
12814;SDS011;6472;52.328;13.070;2023-05-07T14:01:28;1.10;;;0.90;;
12814;SDS011;6472;52.328;13.070;2023-05-07T14:03:56;0.90;;;0.90;;
12814;SDS011;6472;52.328;13.070;2023-05-07T14:06:25;1.00;;;1.00;;
12814;SDS011;6472;52.328;13.070;2023-05-07T14:08:53;1.10;;;1.10;;
12814;SDS011;6472;52.328;13.070;2023-05-07T14:11:24;0.80;;;0.77;;
12814;SDS011;6472;52.328;13.070;2023-05-07T14:13:52;0.82;;;0.80;;
12814;SDS011;6472;52.328;13.070;2023-05-07T14:16:21;0.98;;;0.98;;
12814;SDS011;6472;52.328;13.070;2023-05-07T14:18:49;1.40;;;0.90;;
12814;SDS011;6472;52.328;13.070;2023-05-07T14:21:17;1.10;;;1.00;;
12814;SDS011;6472;52.328;13.070;2023-05-07T14:23:45;0.85;;;0.85;;
12814;SDS011;6472;52.328;13.070;2023-05-07T14:26:13;0.98;;;0.98;;
12814;SDS011;6472;52.328;13.070;2023-05-07T14:28:42;1.27;;;0.90;;
12814;SDS011;6472;52.328;13.070;2023-05-07T14:31:12;1.13;;;1.00;;
12814;SDS011;6472;52.328;13.070;2023-05-07T14:33:42;0.90;;;0.90;;
12814;SDS011;6472;52.328;13.070;2023-05-07T14:36:10;0.80;;;0.80;;
12814;SDS011;6472;52.328;13.070;2023-05-07T14:38:38;0.82;;;0.82;;
12814;SDS011;6472;52.328;13.070;2023-05-07T14:41:06;0.80;;;0.80;;
12814;SDS011;6472;52.328;13.070;2023-05-07T14:43:34;0.93;;;0.93;;
12814;SDS011;6472;52.328;13.070;2023-05-07T14:46:02;1.27;;;0.85;;
12814;SDS011;6472;52.328;13.070;2023-05-07T14:48:31;2.53;;;0.82;;
12814;SDS011;6472;52.328;13.070;2023-05-07T14:51:00;0.85;;;0.85;;
12814;SDS011;6472;52.328;13.070;2023-05-07T14:53:28;4.03;;;0.93;;
12814;SDS011;6472;52.328;13.070;2023-05-07T14:55:56;1.05;;;1.00;;
12814;SDS011;6472;52.328;13.070;2023-05-07T14:58:24;0.98;;;0.95;;
12814;SDS011;6472;52.328;13.070;2023-05-07T15:00:53;1.98;;;1.20;;